Time;durP1;ratioP1;P1;durP2;ratioP2;P2;SDS_P1;SDS_P2;PMS_P1;PMS_P2;Temp;Humidity;BMP_temperature;BMP_pressure;BME280_temperature;BME280_humidity;BME280_pressure;Samples;Min_cycle;Max_cycle;Signal;HPM_P1;HPM_P2
2022/05/04 00:01:17;;;;;;;2.20;2.10;;;;;;;20.17;42.42;96789.88;10324367;28;20039;-52
2022/05/04 00:06:37;;;;;;;2.50;2.30;;;;;;;20.17;42.43;96792.59;10300751;28;20046;-51
2022/05/04 00:11:56;;;;;;;2.70;2.50;;;;;;;20.16;42.45;96777.47;10323989;28;20386;-50
2022/05/04 00:17:16;;;;;;;2.55;2.30;;;;;;;20.15;42.39;96782.09;10323805;28;20062;-49
2022/05/04 00:22:36;;;;;;;2.50;2.28;;;;;;;20.14;42.46;96787.81;10327107;28;20489;-52
2022/05/04 00:27:55;;;;;;;2.38;2.17;;;;;;;20.13;42.45;96788.91;10319000;28;20046;-53
2022/05/04 00:33:15;;;;;;;2.20;2.00;;;;;;;20.13;42.42;96799.75;10339988;28;20410;-50
2022/05/04 00:38:34;;;;;;;3.83;2.20;;;;;;;20.12;42.49;96803.56;10310509;28;20043;-53
2022/05/04 00:43:54;;;;;;;2.45;2.25;;;;;;;20.11;42.41;96802.78;10334948;28;20064;-52
2022/05/04 00:49:14;;;;;;;2.38;2.17;;;;;;;20.10;42.47;96809.31;10334009;28;20042;-51
2022/05/04 00:54:35;;;;;;;2.17;1.98;;;;;;;20.10;42.58;96808.53;10311368;28;20054;-53
2022/05/04 00:59:54;;;;;;;2.50;2.30;;;;;;;20.10;42.42;96814.72;10328744;28;20186;-52
2022/05/04 01:05:14;;;;;;;2.15;1.85;;;;;;;20.08;42.37;96816.97;10306083;28;20101;-53
2022/05/04 01:10:33;;;;;;;2.35;2.08;;;;;;;20.07;42.47;96807.28;10321552;28;20062;-50
2022/05/04 01:15:53;;;;;;;2.30;2.10;;;;;;;20.06;42.48;96818.41;10329834;28;20070;-52
2022/05/04 01:21:12;;;;;;;2.00;1.90;;;;;;;20.07;42.54;96817.28;10312486;28;20058;-52
2022/05/04 01:26:31;;;;;;;2.38;2.17;;;;;;;20.05;42.49;96820.34;10335837;28;20035;-52
2022/05/04 01:31:51;;;;;;;2.08;1.98;;;;;;;20.05;42.48;96825.75;10338020;28;20050;-52
2022/05/04 01:37:11;;;;;;;2.03;1.92;;;;;;;20.05;42.61;96831.16;10325922;28;20055;-53
2022/05/04 01:42:30;;;;;;;2.17;2.00;;;;;;;20.02;42.58;96818.25;10317287;28;20575;-52
2022/05/04 01:47:50;;;;;;;2.10;1.90;;;;;;;20.03;42.62;96816.34;10314063;28;20047;-51
2022/05/04 01:53:09;;;;;;;1.90;1.80;;;;;;;20.02;42.61;96820.19;10331934;28;20065;-52
2022/05/04 01:58:28;;;;;;;2.10;2.00;;;;;;;20.01;42.52;96815.88;10337351;28;20490;-50
2022/05/04 02:03:47;;;;;;;2.08;1.90;;;;;;;20.01;42.62;96813.19;10346287;28;20042;-52
2022/05/04 02:09:08;;;;;;;1.70;1.60;;;;;;;20.00;42.62;96814.31;10303241;28;20375;-52
2022/05/04 02:14:27;;;;;;;2.28;2.08;;;;;;;19.99;42.59;96816.19;10328460;28;20081;-51
2022/05/04 02:19:46;;;;;;;1.88;1.70;;;;;;;19.98;42.65;96811.16;10323750;28;20051;-52
2022/05/04 02:25:06;;;;;;;2.63;1.95;;;;;;;19.97;42.61;96812.25;10324764;28;20528;-52
2022/05/04 02:30:25;;;;;;;2.35;1.90;;;;;;;19.96;42.60;96816.88;10346187;28;20042;-49
2022/05/04 02:41:23;;;;;;;2.10;1.73;;;;;;;19.95;42.71;96820.69;10320751;28;20391;-50
2022/05/04 02:46:42;;;;;;;2.05;1.90;;;;;;;19.94;42.79;96814.50;10324962;28;20050;-52
2022/05/04 02:52:02;;;;;;;2.13;1.92;;;;;;;19.92;42.65;96811.31;10313181;28;20504;-52
2022/05/04 02:57:21;;;;;;;2.00;1.83;;;;;;;19.92;42.63;96824.84;10328839;28;20054;-52
2022/05/04 03:02:41;;;;;;;1.90;1.80;;;;;;;19.91;42.54;96814.34;10327913;28;20055;-51
2022/05/04 03:08:00;;;;;;;1.80;1.70;;;;;;;19.90;42.72;96820.88;10327486;28;20117;-52
2022/05/04 03:13:19;;;;;;;1.83;1.70;;;;;;;19.89;42.67;96817.38;10324022;28;20054;-51
2022/05/04 03:18:39;;;;;;;1.95;1.85;;;;;;;19.89;42.85;96827.41;10320795;28;20616;-51
2022/05/04 03:23:58;;;;;;;1.80;1.70;;;;;;;19.89;42.73;96828.19;10322944;28;20055;-52
2022/05/04 03:29:17;;;;;;;1.90;1.80;;;;;;;19.89;42.73;96830.09;10311564;28;20494;-53
2022/05/04 03:34:37;;;;;;;1.83;1.73;;;;;;;19.87;42.80;96825.00;10310175;28;20066;-50
2022/05/04 03:39:56;;;;;;;2.35;1.83;;;;;;;19.85;42.68;96827.25;10317798;28;20073;-52
2022/05/04 03:45:16;;;;;;;1.80;1.70;;;;;;;19.85;42.79;96832.66;10315503;28;20058;-50
2022/05/04 03:50:35;;;;;;;1.83;1.73;;;;;;;19.85;42.72;96829.94;10316503;28;20100;-53
2022/05/04 03:55:54;;;;;;;1.80;1.70;;;;;;;19.86;42.72;96830.75;10330152;28;20105;-51
2022/05/04 04:01:14;;;;;;;1.80;1.70;;;;;;;19.84;42.77;96836.50;10334501;28;20050;-52
2022/05/04 04:06:34;;;;;;;2.00;1.90;;;;;;;19.86;43.42;96850.47;10308607;28;20401;-50
2022/05/04 04:11:54;;;;;;;2.08;1.95;;;;;;;19.87;43.29;96852.03;10326626;28;20201;-51
2022/05/04 04:17:14;;;;;;;1.88;1.77;;;;;;;19.88;43.36;96850.16;10307673;28;20054;-52
2022/05/04 04:22:33;;;;;;;2.28;1.95;;;;;;;19.88;43.22;96858.28;10328575;28;20520;-52
2022/05/04 04:27:53;;;;;;;2.58;2.00;;;;;;;19.87;43.25;96867.47;10330159;28;20101;-51
2022/05/04 04:33:13;;;;;;;1.73;1.63;;;;;;;19.88;43.23;96869.09;10323753;28;20526;-51
2022/05/04 04:38:33;;;;;;;2.25;1.90;;;;;;;19.89;43.52;96870.66;10319193;28;20043;-52
2022/05/04 04:43:52;;;;;;;2.15;1.92;;;;;;;19.89;43.57;96866.03;10326773;28;20120;-51
2022/05/04 04:49:12;;;;;;;2.25;1.80;;;;;;;19.91;43.84;96868.41;10334571;28;20047;-52
2022/05/04 04:54:31;;;;;;;2.25;2.03;;;;;;;19.93;43.85;96864.28;10347624;28;20046;-49
2022/05/04 04:59:50;;;;;;;2.63;2.33;;;;;;;19.95;43.86;96866.66;10333650;28;20058;-51
2022/05/04 05:05:10;;;;;;;11.48;4.43;;;;;;;19.99;43.97;96869.50;10312553;28;20058;-52
2022/05/04 05:10:29;;;;;;;14.05;5.28;;;;;;;20.02;43.75;96871.56;10331891;28;20485;-51
2022/05/04 05:16:07;;;;;;;17.95;4.75;;;;;;;20.03;43.91;96870.44;10330463;28;20062;-50
2022/05/04 05:21:26;;;;;;;12.23;4.80;;;;;;;20.05;43.87;96868.19;10330232;28;20058;-52
2022/05/04 05:26:45;;;;;;;11.80;4.63;;;;;;;20.07;43.87;96871.38;10344874;28;20057;-49
2022/05/04 05:32:05;;;;;;;10.48;4.60;;;;;;;20.10;43.73;96876.13;10328149;28;20074;-52
2022/05/04 05:37:25;;;;;;;8.60;4.40;;;;;;;20.12;43.79;96871.19;10329107;28;20498;-49
2022/05/04 05:42:45;;;;;;;10.23;4.47;;;;;;;20.15;43.72;96873.25;10312492;28;20409;-51
2022/05/04 05:48:04;;;;;;;10.63;4.88;;;;;;;20.18;43.80;96872.59;10333115;28;20493;-49
2022/05/04 05:53:24;;;;;;;8.82;4.22;;;;;;;20.21;43.67;96874.66;10334694;28;20069;-51
2022/05/04 05:58:44;;;;;;;13.05;4.72;;;;;;;20.22;43.60;96881.63;10315627;28;20047;-52
2022/05/04 06:04:03;;;;;;;10.07;4.90;;;;;;;20.25;43.60;96885.63;10308247;28;20059;-49
2022/05/04 06:09:23;;;;;;;9.25;4.70;;;;;;;20.27;43.58;96894.19;10330856;28;20394;-52
2022/05/04 06:14:42;;;;;;;7.97;4.25;;;;;;;20.28;43.53;96887.66;10313561;28;20062;-50
2022/05/04 06:20:04;;;;;;;11.27;4.60;;;;;;;20.29;43.63;96892.75;10328562;28;20055;-52
2022/05/04 06:25:23;;;;;;;10.05;4.75;;;;;;;20.30;43.57;96880.00;10335622;28;20042;-51
2022/05/04 06:36:21;;;;;;;9.18;5.20;;;;;;;20.31;43.44;96887.81;10319331;28;20097;-49
2022/05/04 06:41:41;;;;;;;11.88;5.15;;;;;;;20.33;43.63;96890.19;10327698;28;20050;-50
2022/05/04 06:47:00;;;;;;;9.93;4.95;;;;;;;20.35;43.63;96893.34;10334642;28;20045;-49
2022/05/04 06:52:20;;;;;;;9.35;5.40;;;;;;;20.36;43.59;96900.34;10327723;28;20054;-52
2022/05/04 06:57:40;;;;;;;8.18;5.20;;;;;;;20.35;43.63;96898.78;10321637;28;20116;-49
2022/05/04 07:02:59;;;;;;;7.22;4.82;;;;;;;20.36;43.44;96894.94;10308514;28;20109;-51
2022/05/04 07:08:19;;;;;;;10.55;5.18;;;;;;;20.37;43.49;96898.44;10324501;28;20108;-52
2022/05/04 07:13:38;;;;;;;7.10;5.00;;;;;;;20.38;43.49;96900.03;10318197;28;20125;-52
2022/05/04 07:18:58;;;;;;;10.23;7.38;;;;;;;20.35;42.99;96906.88;10321576;28;20053;-50
2022/05/04 07:24:17;;;;;;;9.18;6.82;;;;;;;20.31;43.20;96904.03;10315021;28;20096;-51
2022/05/04 07:29:37;;;;;;;7.65;5.95;;;;;;;20.32;43.24;96894.00;10330456;28;20058;-52
2022/05/04 07:34:57;;;;;;;10.30;6.18;;;;;;;20.31;43.87;96898.63;10323712;28;20057;-50
2022/05/04 07:45:55;;;;;;;7.60;5.45;;;;;;;20.35;44.11;96902.25;10327623;28;20053;-52
2022/05/04 07:51:14;;;;;;;7.13;5.28;;;;;;;20.37;43.96;96906.56;10327408;28;20054;-51
2022/05/04 07:56:34;;;;;;;6.57;5.50;;;;;;;20.37;44.04;96901.16;10344385;28;20100;-51
2022/05/04 08:07:31;;;;;;;11.43;10.33;;;;;;;20.23;43.31;96913.00;10329499;28;20105;-53
2022/05/04 08:12:50;;;;;;;11.88;9.23;;;;;;;20.12;42.98;96911.75;10329005;28;20070;-53
2022/05/04 08:18:10;;;;;;;10.77;9.75;;;;;;;20.00;42.38;96914.38;10308499;28;20079;-50
2022/05/04 08:23:29;;;;;;;11.23;9.35;;;;;;;19.97;43.61;96917.69;10304968;28;20065;-52
2022/05/04 08:28:50;;;;;;;13.60;9.73;;;;;;;19.93;42.72;96920.25;10325821;28;20105;-51
2022/05/04 08:34:09;;;;;;;12.05;9.93;;;;;;;19.91;42.83;96917.09;10328297;28;20056;-52
2022/05/04 08:39:29;;;;;;;9.93;8.88;;;;;;;19.85;42.70;96924.56;10326537;28;20058;-51
2022/05/04 08:44:52;;;;;;;10.52;8.48;;;;;;;19.86;42.86;96931.56;10326451;28;20062;-52
2022/05/04 08:50:15;;;;;;;9.38;8.57;;;;;;;19.84;42.78;96928.41;10317500;28;20042;-51
2022/05/04 08:55:39;;;;;;;9.38;7.82;;;;;;;19.83;42.35;96926.81;10301210;28;20062;-51
2022/05/04 09:00:59;;;;;;;10.93;8.23;;;;;;;19.81;42.11;96914.72;10309086;28;20055;-52
2022/05/04 09:06:32;;;;;;;10.77;9.23;;;;;;;19.82;42.19;96913.63;10322016;28;20043;-51
2022/05/04 09:11:52;;;;;;;9.57;8.10;;;;;;;19.81;41.93;96917.44;10311420;28;20061;-50
2022/05/04 09:17:14;;;;;;;8.88;6.20;;;;;;;19.82;41.94;96909.00;10303233;28;20062;-49
2022/05/04 09:22:34;;;;;;;5.00;4.47;;;;;;;19.87;42.10;96906.13;10311207;28;20150;-50
2022/05/04 09:27:56;;;;;;;7.30;4.82;;;;;;;19.90;42.45;96900.06;10312540;28;20054;-49
2022/05/04 09:33:19;;;;;;;5.10;4.60;;;;;;;19.94;42.34;96902.94;10324260;28;20073;-50
2022/05/04 09:50:02;;;;;;;4.50;4.10;;;;;;;19.99;42.00;96904.66;10323336;28;20329;-49
2022/05/04 09:55:24;;;;;;;4.68;4.00;;;;;;;20.00;41.83;96904.34;10310916;28;20109;-51
2022/05/04 10:00:43;;;;;;;4.25;3.90;;;;;;;20.02;42.25;96904.00;10312409;28;20050;-52
2022/05/04 10:06:03;;;;;;;4.80;4.32;;;;;;;20.03;42.27;96908.28;10328386;28;20049;-49
2022/05/04 10:11:23;;;;;;;4.82;4.20;;;;;;;20.02;42.28;96895.91;10308747;28;20042;-51
2022/05/04 10:16:51;;;;;;;4.63;4.20;;;;;;;20.04;42.17;96888.25;10321587;28;20505;-49
2022/05/04 10:22:15;;;;;;;5.88;4.20;;;;;;;20.05;42.01;96887.94;10316323;28;20062;-49
2022/05/04 10:27:41;;;;;;;4.50;4.10;;;;;;;20.06;42.05;96872.50;10317921;28;20474;-51
2022/05/04 10:33:02;;;;;;;4.72;4.32;;;;;;;20.03;42.06;96865.84;10328959;28;20229;-53
2022/05/04 10:38:28;;;;;;;4.50;4.10;;;;;;;20.04;41.79;96869.31;10317732;28;20046;-53
2022/05/04 10:43:50;;;;;;;5.60;4.30;;;;;;;20.07;41.69;96865.97;10351237;28;20052;-53
2022/05/04 10:49:13;;;;;;;4.47;3.88;;;;;;;20.07;41.76;96857.84;10326836;28;20047;-53
2022/05/04 10:54:34;;;;;;;4.80;4.40;;;;;;;20.05;41.74;96844.66;10324524;28;20046;-53
2022/05/04 11:00:04;;;;;;;4.15;3.75;;;;;;;20.04;41.51;96851.19;10320787;28;20400;-53
2022/05/04 11:05:23;;;;;;;4.10;3.70;;;;;;;20.05;41.51;96847.38;10325601;28;20068;-51
2022/05/04 11:10:43;;;;;;;4.22;3.83;;;;;;;20.05;41.34;96838.44;10305453;28;20074;-51
2022/05/04 11:16:02;;;;;;;4.25;3.80;;;;;;;20.05;41.27;96838.44;10329768;28;20120;-52
2022/05/04 11:21:22;;;;;;;4.63;3.80;;;;;;;20.04;41.27;96837.66;10322164;28;20136;-53
2022/05/04 11:26:46;;;;;;;4.38;3.85;;;;;;;20.05;41.36;96833.03;10319941;28;20061;-50
2022/05/04 11:32:06;;;;;;;5.75;4.18;;;;;;;20.06;41.67;96829.22;10324918;28;20054;-53
2022/05/04 11:37:27;;;;;;;59.28;23.00;;;;;;;20.08;42.80;96818.88;10337991;28;20093;-51
2022/05/04 11:42:48;;;;;;;55.90;23.60;;;;;;;20.08;43.64;96821.56;10322929;28;20128;-50
2022/05/04 11:48:08;;;;;;;33.20;14.77;;;;;;;20.07;43.37;96818.09;10315056;28;20691;-50
2022/05/04 11:53:27;;;;;;;31.33;13.05;;;;;;;20.09;43.91;96820.44;10328630;28;20045;-50
2022/05/04 11:58:50;;;;;;;26.90;12.05;;;;;;;20.09;43.63;96807.75;10313011;28;20069;-50
2022/05/04 12:04:12;;;;;;;29.42;12.70;;;;;;;20.10;43.61;96813.94;10310815;28;20055;-52
2022/05/04 12:09:31;;;;;;;25.58;10.52;;;;;;;20.11;43.70;96797.38;10303461;28;20066;-53
2022/05/04 12:14:52;;;;;;;21.13;10.73;;;;;;;20.13;43.66;96780.81;10319774;28;20112;-51
2022/05/04 12:20:12;;;;;;;23.95;10.25;;;;;;;20.12;43.78;96788.13;10319191;28;20429;-53
2022/05/04 12:25:31;;;;;;;21.02;9.90;;;;;;;20.12;43.84;96777.31;10321684;28;20061;-52
2022/05/04 12:36:30;;;;;;;18.30;9.30;;;;;;;20.11;43.65;96777.63;10306442;28;20070;-52
2022/05/04 12:41:49;;;;;;;18.02;8.50;;;;;;;20.11;43.83;96773.03;10314406;28;20474;-50
2022/05/04 12:47:09;;;;;;;14.52;7.57;;;;;;;20.12;43.83;96763.00;10300563;28;20504;-53
2022/05/04 12:52:30;;;;;;;13.70;7.22;;;;;;;20.12;43.88;96765.72;10307929;28;20062;-53
2022/05/04 12:57:49;;;;;;;16.83;7.85;;;;;;;20.13;44.09;96764.56;10313649;28;20050;-53
2022/05/04 13:03:12;;;;;;;13.13;7.03;;;;;;;20.15;43.88;96771.25;10313806;28;20149;-53
2022/05/04 13:08:31;;;;;;;11.93;6.90;;;;;;;20.13;43.89;96764.56;10339866;28;20046;-50
2022/05/04 13:13:52;;;;;;;9.50;5.63;;;;;;;20.11;43.46;96769.53;10329746;28;20619;-49
2022/05/04 13:19:12;;;;;;;8.65;5.88;;;;;;;20.09;43.18;96771.75;10326971;28;20061;-51
2022/05/04 13:24:31;;;;;;;8.40;6.07;;;;;;;20.07;43.16;96760.47;10329790;28;20062;-52
2022/05/04 13:29:51;;;;;;;10.02;5.68;;;;;;;20.06;43.10;96767.03;10342591;28;20504;-50
2022/05/04 13:35:10;;;;;;;8.90;5.63;;;;;;;20.06;43.15;96767.03;10328083;28;20054;-50
2022/05/04 13:40:29;;;;;;;10.02;6.03;;;;;;;20.06;43.24;96762.41;10317308;28;20061;-52
2022/05/04 13:45:49;;;;;;;7.03;4.97;;;;;;;20.05;43.04;96768.13;10325384;28;20050;-52
2022/05/04 13:56:51;;;;;;;8.88;5.30;;;;;;;20.05;43.10;96757.31;10332835;28;20457;-53
2022/05/04 14:02:11;;;;;;;6.45;5.10;;;;;;;20.03;43.16;96749.56;10337731;28;20042;-50
2022/05/04 14:07:31;;;;;;;6.90;4.57;;;;;;;20.03;43.05;96746.03;10336491;28;20501;-52
2022/05/04 14:12:50;;;;;;;5.07;4.57;;;;;;;20.04;43.03;96755.75;10321353;28;20050;-48
2022/05/04 14:18:09;;;;;;;7.53;4.82;;;;;;;20.03;43.05;96752.25;10320693;28;20047;-49
2022/05/04 14:23:31;;;;;;;6.93;4.57;;;;;;;20.01;43.11;96759.09;10321992;28;20046;-48
2022/05/04 14:28:50;;;;;;;5.90;4.45;;;;;;;20.00;43.11;96771.84;10320270;28;20050;-50
2022/05/04 14:34:09;;;;;;;8.30;4.70;;;;;;;20.00;42.13;96757.53;10329812;28;20115;-50
2022/05/04 14:39:33;;;;;;;5.88;4.30;;;;;;;19.99;41.13;96770.22;10342126;28;20035;-51
2022/05/04 14:44:52;;;;;;;4.57;3.92;;;;;;;19.99;40.97;96764.03;10331760;28;20050;-50
2022/05/04 14:50:11;;;;;;;4.70;4.10;;;;;;;19.97;40.83;96774.41;10330440;28;20066;-48
2022/05/04 14:55:31;;;;;;;4.75;4.25;;;;;;;19.95;40.92;96774.72;10324786;28;20414;-50
2022/05/04 15:00:52;;;;;;;4.40;4.00;;;;;;;19.96;40.92;96792.53;10296989;28;20054;-48
2022/05/04 15:06:12;;;;;;;4.70;4.15;;;;;;;19.94;40.98;96800.97;10305696;28;20051;-48
2022/05/04 15:11:31;;;;;;;5.95;4.10;;;;;;;19.94;41.05;96814.50;10330235;28;20115;-50
2022/05/04 15:16:50;;;;;;;4.78;3.50;;;;;;;19.91;41.52;96809.72;10323006;28;20057;-50
2022/05/04 15:22:10;;;;;;;4.13;3.10;;;;;;;19.90;42.00;96818.97;10310911;28;21350;-51
2022/05/04 15:27:30;;;;;;;4.53;2.88;;;;;;;19.89;42.51;96805.75;10323758;28;20054;-50
2022/05/04 15:32:49;;;;;;;4.50;2.67;;;;;;;19.86;42.78;96798.31;10340242;28;20035;-51
2022/05/04 15:38:08;;;;;;;5.80;2.95;;;;;;;19.83;43.12;96791.63;10320852;28;20053;-50
2022/05/04 15:43:27;;;;;;;4.07;2.60;;;;;;;19.80;43.09;96789.59;10318262;28;20141;-50
2022/05/04 15:48:47;;;;;;;3.72;2.75;;;;;;;19.79;43.00;96777.19;10327420;28;20644;-50
2022/05/04 15:54:08;;;;;;;2.90;2.60;;;;;;;19.81;43.13;96776.88;10322016;28;20754;-50
2022/05/04 15:59:28;;;;;;;3.45;2.80;;;;;;;19.81;43.20;96766.84;10318259;28;20047;-50
2022/05/04 16:04:47;;;;;;;4.15;2.55;;;;;;;19.83;43.56;96753.78;10306440;28;20418;-50
2022/05/04 16:10:07;;;;;;;4.30;2.88;;;;;;;19.83;44.04;96747.59;10311903;28;20050;-48
2022/05/04 16:15:26;;;;;;;3.53;3.03;;;;;;;19.85;44.52;96751.56;10311377;28;20591;-50
2022/05/04 16:26:25;;;;;;;3.38;2.90;;;;;;;19.87;45.01;96735.78;10325956;28;20062;-48
2022/05/04 16:31:44;;;;;;;5.00;3.15;;;;;;;19.90;45.20;96724.34;10308965;28;20051;-49
2022/05/04 16:37:04;;;;;;;2.97;2.58;;;;;;;19.91;45.12;96727.81;10307445;28;20042;-50
2022/05/04 16:42:24;;;;;;;2.65;2.45;;;;;;;19.93;45.01;96720.19;10322165;28;20061;-51
2022/05/04 16:47:43;;;;;;;3.10;2.40;;;;;;;19.93;45.08;96721.00;10331763;28;20397;-48
2022/05/04 16:53:03;;;;;;;4.72;2.60;;;;;;;19.93;44.49;96731.00;10333622;28;20484;-49
2022/05/04 16:58:23;;;;;;;3.33;2.50;;;;;;;19.93;44.46;96734.50;10320432;28;20054;-50
2022/05/04 17:03:44;;;;;;;3.40;2.53;;;;;;;19.92;44.47;96735.63;10327927;28;20053;-48
2022/05/04 17:09:05;;;;;;;2.60;2.40;;;;;;;19.93;44.32;96734.50;10322545;28;20105;-50
2022/05/04 17:14:25;;;;;;;3.63;2.33;;;;;;;19.93;44.06;96739.91;10324259;28;20074;-50
2022/05/04 17:19:44;;;;;;;2.80;2.60;;;;;;;19.92;43.93;96746.44;10332374;28;20042;-50
2022/05/04 17:25:06;;;;;;;3.55;2.45;;;;;;;19.92;43.83;96743.72;10320421;28;20050;-51
2022/05/04 17:30:26;;;;;;;2.25;2.05;;;;;;;19.91;43.79;96752.16;10321785;28;20417;-50
2022/05/04 17:41:23;;;;;;;2.73;2.23;;;;;;;19.90;43.40;96743.25;10326691;28;20399;-49
2022/05/04 17:46:43;;;;;;;4.53;2.58;;;;;;;19.90;43.19;96753.28;10326751;28;20105;-50
2022/05/04 17:52:03;;;;;;;2.95;2.35;;;;;;;19.88;43.19;96763.66;10323853;28;20061;-49
2022/05/04 17:57:22;;;;;;;2.78;2.38;;;;;;;19.87;43.61;96760.13;10325840;28;20062;-50
2022/05/04 18:08:19;;;;;;;3.80;2.37;;;;;;;19.87;43.65;96775.56;10325611;28;20042;-50
2022/05/04 18:13:39;;;;;;;5.45;2.50;;;;;;;19.86;44.08;96785.59;10331168;28;20074;-51
2022/05/04 18:18:59;;;;;;;3.50;2.65;;;;;;;19.87;44.29;96791.78;10325019;28;20053;-50
2022/05/04 18:24:18;;;;;;;4.90;2.55;;;;;;;19.87;44.45;96794.50;10325748;28;20054;-50
2022/05/04 18:29:38;;;;;;;3.17;2.38;;;;;;;19.88;44.65;96798.78;10325294;28;20100;-48
2022/05/04 18:34:57;;;;;;;4.63;2.90;;;;;;;19.87;44.95;96806.09;10336810;28;20154;-49
2022/05/04 18:40:17;;;;;;;3.40;2.30;;;;;;;19.87;44.90;96813.41;10338735;28;20053;-49
2022/05/04 18:45:36;;;;;;;4.75;3.05;;;;;;;19.85;45.00;96815.66;10342113;28;20034;-50
2022/05/04 18:50:58;;;;;;;3.35;2.78;;;;;;;19.83;44.78;96813.25;10338502;28;20073;-51
2022/05/04 18:56:18;;;;;;;7.85;3.13;;;;;;;19.83;45.46;96818.66;10335661;28;20051;-50
2022/05/04 19:01:38;;;;;;;6.72;3.38;;;;;;;19.85;45.69;96821.06;10319559;28;20482;-51
2022/05/04 19:06:57;;;;;;;5.55;3.08;;;;;;;19.83;45.48;96821.38;10336126;28;20042;-50
2022/05/04 19:12:17;;;;;;;3.97;2.80;;;;;;;19.82;45.63;96817.09;10324157;28;20073;-50
2022/05/04 19:17:37;;;;;;;3.20;2.90;;;;;;;19.84;45.37;96819.47;10334340;28;20399;-51
2022/05/04 19:22:57;;;;;;;3.28;2.90;;;;;;;19.83;46.10;96818.66;10320566;28;20050;-49
2022/05/04 19:28:16;;;;;;;4.30;2.90;;;;;;;19.83;46.28;96818.66;10324198;28;20062;-50
2022/05/04 19:33:36;;;;;;;3.65;3.10;;;;;;;19.83;46.43;96813.25;10325378;28;20046;-51
2022/05/04 19:38:55;;;;;;;3.40;2.75;;;;;;;19.83;46.64;96815.97;10323190;28;20058;-48
2022/05/04 19:44:15;;;;;;;4.82;3.03;;;;;;;19.84;46.73;96814.06;10322257;28;20054;-49
2022/05/04 19:49:35;;;;;;;3.10;2.88;;;;;;;19.84;46.83;96824.88;10303482;28;20043;-50
2022/05/04 19:54:54;;;;;;;3.47;2.90;;;;;;;19.84;47.03;96824.88;10332376;28;20038;-51
2022/05/04 20:00:15;;;;;;;6.35;2.85;;;;;;;19.83;47.09;96824.06;10316987;28;20062;-50
2022/05/04 20:05:36;;;;;;;3.20;2.83;;;;;;;19.82;47.22;96822.50;10321686;28;20054;-48
2022/05/04 20:10:55;;;;;;;3.42;2.78;;;;;;;19.81;47.20;96831.72;10320719;28;20057;-51
2022/05/04 20:16:15;;;;;;;3.08;2.80;;;;;;;19.82;47.20;96836.03;10311608;28;20070;-48
2022/05/04 20:21:34;;;;;;;2.95;2.70;;;;;;;19.82;47.33;96848.75;10317588;28;20054;-50
2022/05/04 20:26:54;;;;;;;3.10;2.85;;;;;;;19.83;47.52;96853.03;10331593;28;20105;-50
2022/05/04 20:32:13;;;;;;;3.38;2.88;;;;;;;19.84;47.81;96852.72;10319121;28;20054;-50
2022/05/04 20:43:11;;;;;;;3.10;2.80;;;;;;;19.85;47.70;96854.28;10320334;28;20074;-49
2022/05/04 20:48:30;;;;;;;2.88;2.58;;;;;;;19.84;47.75;96847.31;10330801;28;20038;-50
2022/05/04 20:53:50;;;;;;;3.47;3.08;;;;;;;19.85;47.65;96853.50;10318373;28;20088;-50
2022/05/04 20:59:12;;;;;;;3.45;3.15;;;;;;;19.85;47.64;96856.19;10315750;28;20062;-48
2022/05/04 21:04:31;;;;;;;5.38;3.47;;;;;;;19.84;47.51;96858.13;10312939;28;20058;-51
2022/05/04 21:09:51;;;;;;;6.18;3.65;;;;;;;19.85;47.61;96881.31;10323598;28;20482;-48
2022/05/04 21:15:10;;;;;;;4.80;3.40;;;;;;;19.85;47.42;96861.59;10323734;28;20590;-49
2022/05/04 21:20:30;;;;;;;5.47;3.30;;;;;;;19.84;47.46;96865.44;10336357;28;20124;-49
2022/05/04 21:25:49;;;;;;;4.82;3.50;;;;;;;19.84;47.65;96868.16;10324492;28;20053;-50
2022/05/04 21:31:08;;;;;;;5.55;3.53;;;;;;;19.83;47.43;96878.16;10316019;28;20585;-50
2022/05/04 21:36:27;;;;;;;7.65;4.18;;;;;;;19.83;47.46;96878.16;10316573;28;20046;-48
2022/05/04 21:41:47;;;;;;;9.57;5.03;;;;;;;19.83;47.51;96883.56;10335035;28;20056;-51
2022/05/04 21:47:06;;;;;;;9.23;4.95;;;;;;;19.82;47.38;96881.97;10327486;28;20058;-51
2022/05/04 21:52:27;;;;;;;7.78;4.35;;;;;;;19.83;47.41;96883.56;10330650;28;20085;-47
2022/05/04 21:57:46;;;;;;;7.80;4.43;;;;;;;19.82;47.33;96895.50;10337135;28;20049;-48
2022/05/04 22:03:07;;;;;;;8.68;4.72;;;;;;;19.82;47.41;96892.78;10322547;28;20054;-50
2022/05/04 22:08:27;;;;;;;8.13;4.30;;;;;;;19.81;47.39;96893.09;10319881;28;20062;-50
2022/05/04 22:13:56;;;;;;;7.07;4.10;;;;;;;19.81;47.35;96899.31;10326639;28;20058;-50
2022/05/04 22:19:17;;;;;;;8.25;4.45;;;;;;;19.81;47.34;96903.91;10337160;28;20045;-47
2022/05/04 22:24:36;;;;;;;6.85;4.68;;;;;;;19.81;47.29;96899.31;10321546;28;20061;-50
2022/05/04 22:29:56;;;;;;;7.60;4.25;;;;;;;19.79;47.33;96896.13;10302897;28;20395;-50
2022/05/04 22:35:16;;;;;;;9.38;5.72;;;;;;;19.79;47.34;96896.13;10309680;28;20054;-50
2022/05/04 22:40:35;;;;;;;7.78;4.68;;;;;;;19.79;47.72;96898.84;10301317;28;20078;-50
2022/05/04 22:45:55;;;;;;;5.88;3.95;;;;;;;19.79;47.75;96898.03;10327594;28;20442;-47
2022/05/04 22:51:14;;;;;;;7.15;4.28;;;;;;;19.79;47.86;96898.84;10295367;28;20148;-47
2022/05/04 22:56:34;;;;;;;6.55;4.13;;;;;;;19.79;47.89;96896.13;10314334;28;20057;-49
2022/05/04 23:01:53;;;;;;;7.50;4.30;;;;;;;19.78;47.90;96894.56;10315274;28;20058;-50
2022/05/04 23:07:13;;;;;;;6.47;4.07;;;;;;;19.77;48.04;96886.75;10320610;28;20057;-51
2022/05/04 23:12:33;;;;;;;5.05;3.83;;;;;;;19.77;48.20;96887.56;10308980;28;20050;-49
2022/05/04 23:17:52;;;;;;;6.07;4.13;;;;;;;19.78;48.14;96882.94;10305199;28;20574;-50
2022/05/04 23:23:12;;;;;;;6.65;4.07;;;;;;;19.75;48.05;96879.75;10305018;28;20061;-50
2022/05/04 23:28:33;;;;;;;6.68;4.15;;;;;;;19.76;48.05;96880.56;10311272;28;20035;-51
2022/05/04 23:33:52;;;;;;;7.82;4.20;;;;;;;19.75;48.22;96884.38;10323625;28;20410;-50
2022/05/04 23:39:11;;;;;;;6.47;4.30;;;;;;;19.75;48.18;96884.38;10314431;28;20386;-49
2022/05/04 23:44:33;;;;;;;6.22;3.90;;;;;;;19.74;48.21;96883.59;10322275;28;20488;-48
2022/05/04 23:49:52;;;;;;;4.97;3.88;;;;;;;19.74;48.35;96880.09;10324014;28;20043;-49
2022/05/04 23:55:12;;;;;;;5.40;3.83;;;;;;;19.73;48.44;96873.09;10310462;28;20035;-50
